Time,TemperatureF,DewpointF,PressureIn,WindDirection,WindDirectionDegrees,WindSpeedMPH,WindSpeedGustMPH,Humidity,HourlyPrecipIn,Conditions,Clouds,dailyrainin,SoftwareType,DateUTC
2013-01-09 00:12:00,43.5,43.0,30.14,NNE,22,2.7,-999.0,98,-99.99,,,0.00,Acu-Link.com,2013-01-09 06:12:00,
2013-01-09 00:27:00,44.2,43.7,30.14,NE,45,3.1,-999.0,98,-99.99,,,0.00,Acu-Link.com,2013-01-09 06:27:00,
2013-01-09 00:42:00,44.2,43.7,30.14,NNE,22,4.7,-999.0,98,-99.99,,,0.00,Acu-Link.com,2013-01-09 06:42:00,
2013-01-09 00:58:00,44.8,44.2,30.13,North,0,4.3,-999.0,98,-99.99,,,0.00,Acu-Link.com,2013-01-09 06:58:00,
2013-01-09 01:13:00,44.8,44.2,30.14,NNE,22,3.8,-999.0,98,-99.99,,,0.00,Acu-Link.com,2013-01-09 07:13:00,
2013-01-09 01:28:00,44.2,43.7,30.14,North,0,4.7,-999.0,98,-99.99,,,0.00,Acu-Link.com,2013-01-09 07:28:00,
2013-01-09 01:43:00,44.2,43.2,30.13,North,0,8.3,-999.0,96,-99.99,,,0.00,Acu-Link.com,2013-01-09 07:43:00,
2013-01-09 01:59:00,44.4,43.4,30.13,North,0,7.8,-999.0,96,-99.99,,,0.00,Acu-Link.com,2013-01-09 07:59:00,
2013-01-09 02:14:00,42.4,41.9,30.12,North,0,4.7,-999.0,98,-99.99,,,0.00,Acu-Link.com,2013-01-09 08:14:00,
2013-01-09 02:29:00,41.9,41.4,30.12,NNE,22,4.3,-999.0,98,-99.99,,,0.00,Acu-Link.com,2013-01-09 08:29:00,
2013-01-09 02:44:00,42.1,41.6,30.11,NW,315,4.7,-999.0,98,-99.99,,,0.00,Acu-Link.com,2013-01-09 08:44:00,
2013-01-09 02:59:00,41.9,41.4,30.12,NNW,337,6.3,-999.0,98,-99.99,,,0.00,Acu-Link.com,2013-01-09 08:59:00,
2013-01-09 03:14:00,42.3,41.7,30.13,North,0,4.7,-999.0,98,-99.99,,,0.00,Acu-Link.com,2013-01-09 09:14:00,
2013-01-09 03:29:00,41.2,40.7,30.12,West,270,5.1,-999.0,98,-99.99,,,0.00,Acu-Link.com,2013-01-09 09:29:00,
2013-01-09 03:45:00,40.8,40.3,30.13,NNE,22,6.7,-999.0,98,-99.99,,,0.00,Acu-Link.com,2013-01-09 09:45:00,
2013-01-09 04:00:00,41.4,40.8,30.15,NNW,337,10.3,-999.0,98,-99.99,,,0.00,Acu-Link.com,2013-01-09 10:00:00,
2013-01-09 04:15:00,41.0,40.5,30.15,NNW,337,6.3,-999.0,98,-99.99,,,0.00,Acu-Link.com,2013-01-09 10:15:00,
2013-01-09 04:30:00,41.0,40.5,30.16,North,0,7.8,-999.0,98,-99.99,,,0.00,Acu-Link.com,2013-01-09 10:30:00,
2013-01-09 04:46:00,40.6,40.1,30.16,NW,315,11.4,-999.0,98,-99.99,,,0.00,Acu-Link.com,2013-01-09 10:46:00,
2013-01-09 05:01:00,40.8,38.7,30.16,NNW,337,12.5,-999.0,92,-99.99,,,0.00,Acu-Link.com,2013-01-09 11:01:00,
2013-01-09 05:16:00,40.5,37.8,30.16,NNW,337,14.5,-999.0,90,-99.99,,,0.00,Acu-Link.com,2013-01-09 11:16:00,
2013-01-09 05:31:00,40.1,37.7,30.16,NNW,337,6.3,-999.0,91,-99.99,,,0.00,Acu-Link.com,2013-01-09 11:31:00,
2013-01-09 05:46:00,40.1,37.4,30.17,NNW,337,7.4,-999.0,90,-99.99,,,0.00,Acu-Link.com,2013-01-09 11:46:00,
2013-01-09 06:02:00,40.6,37.4,30.18,NNE,22,7.8,-999.0,88,-99.99,,,0.00,Acu-Link.com,2013-01-09 12:02:00,
2013-01-09 06:17:00,41.2,37.0,30.19,NNW,337,8.9,-999.0,85,-99.99,,,0.00,Acu-Link.com,2013-01-09 12:17:00,
2013-01-09 06:32:00,41.4,37.2,30.19,NW,315,8.9,-999.0,85,-99.99,,,0.00,Acu-Link.com,2013-01-09 12:32:00,
2013-01-09 06:47:00,41.4,36.9,30.20,NNW,337,7.4,-999.0,84,-99.99,,,0.00,Acu-Link.com,2013-01-09 12:47:00,
2013-01-09 07:02:00,41.9,37.1,30.19,North,0,9.4,-999.0,83,-99.99,,,0.00,Acu-Link.com,2013-01-09 13:02:00,
2013-01-09 07:18:00,42.3,37.2,30.19,NNE,22,11.9,-999.0,82,-99.99,,,0.00,Acu-Link.com,2013-01-09 13:18:00,
2013-01-09 07:33:00,42.1,36.7,30.20,NNE,22,8.9,-999.0,81,-99.99,,,0.00,Acu-Link.com,2013-01-09 13:33:00,
2013-01-09 07:48:00,41.9,36.5,30.20,North,0,11.4,-999.0,81,-99.99,,,0.00,Acu-Link.com,2013-01-09 13:48:00,
2013-01-09 08:03:00,41.7,36.3,30.20,NNE,22,11.9,-999.0,81,-99.99,,,0.00,Acu-Link.com,2013-01-09 14:03:00,
2013-01-09 08:18:00,42.3,36.9,30.22,NNE,22,8.3,-999.0,81,-99.99,,,0.00,Acu-Link.com,2013-01-09 14:18:00,
2013-01-09 08:34:00,42.4,37.0,30.23,NNW,337,11.0,-999.0,81,-99.99,,,0.00,Acu-Link.com,2013-01-09 14:34:00,
2013-01-09 08:49:00,42.6,37.2,30.23,North,0,11.9,-999.0,81,-99.99,,,0.00,Acu-Link.com,2013-01-09 14:49:00,
2013-01-09 09:04:00,43.3,37.9,30.24,NNE,22,11.9,-999.0,81,-99.99,,,0.00,Acu-Link.com,2013-01-09 15:04:00,
2013-01-09 09:19:00,43.7,38.3,30.25,NNE,22,6.3,-999.0,81,-99.99,,,0.00,Acu-Link.com,2013-01-09 15:19:00,
2013-01-09 09:35:00,43.7,38.9,30.25,NNE,22,8.3,-999.0,83,-99.99,,,0.00,Acu-Link.com,2013-01-09 15:35:00,
2013-01-09 09:50:00,43.5,39.6,30.26,NNE,22,7.8,-999.0,86,-99.99,,,0.00,Acu-Link.com,2013-01-09 15:50:00,
2013-01-09 10:05:00,44.1,39.5,30.26,NNE,22,13.0,-999.0,84,-99.99,,,0.00,Acu-Link.com,2013-01-09 16:05:00,
2013-01-09 10:20:00,43.7,40.4,30.26,NNE,22,13.0,-999.0,88,-99.99,,,0.00,Acu-Link.com,2013-01-09 16:20:00,
2013-01-09 10:35:00,43.5,40.5,30.26,NNE,22,9.4,-999.0,89,-99.99,,,0.00,Acu-Link.com,2013-01-09 16:35:00,
2013-01-09 10:51:00,43.3,40.3,30.25,NNW,337,9.8,-999.0,89,-99.99,,,0.00,Acu-Link.com,2013-01-09 16:51:00,
2013-01-09 11:06:00,44.1,39.8,30.25,North,0,9.8,-999.0,85,-99.99,,,0.00,Acu-Link.com,2013-01-09 17:06:00,
2013-01-09 11:21:00,45.5,40.6,30.24,North,0,11.4,-999.0,83,-99.99,,,0.00,Acu-Link.com,2013-01-09 17:21:00,
2013-01-09 11:36:00,45.9,40.7,30.23,NNE,22,12.5,-999.0,82,-99.99,,,0.00,Acu-Link.com,2013-01-09 17:36:00,
2013-01-09 11:51:00,46.4,42.1,30.23,NE,45,11.0,-999.0,85,-99.99,,,0.00,Acu-Link.com,2013-01-09 17:51:00,
2013-01-09 12:07:00,45.3,44.8,30.21,NE,45,21.3,-999.0,98,-99.99,,,0.00,Acu-Link.com,2013-01-09 18:07:00,
2013-01-09 12:22:00,44.6,44.1,30.21,North,0,11.0,-999.0,98,-99.99,,,0.00,Acu-Link.com,2013-01-09 18:22:00,
2013-01-09 12:37:00,44.1,43.5,30.19,NNE,22,15.0,-999.0,98,-99.99,,,0.00,Acu-Link.com,2013-01-09 18:37:00,
2013-01-09 12:52:00,44.2,43.7,30.19,NE,45,8.3,-999.0,98,-99.99,,,0.02,Acu-Link.com,2013-01-09 18:52:00,
2013-01-09 13:07:00,43.9,43.4,30.15,NE,45,12.5,-999.0,98,-99.99,,,0.07,Acu-Link.com,2013-01-09 19:07:00,
2013-01-09 13:23:00,44.1,43.5,30.14,NE,45,17.0,-999.0,98,-99.99,,,0.12,Acu-Link.com,2013-01-09 19:23:00,
2013-01-09 13:38:00,44.2,43.7,30.14,NNE,22,17.0,-999.0,98,-99.99,,,0.14,Acu-Link.com,2013-01-09 19:38:00,
2013-01-09 13:53:00,44.2,43.7,30.14,ENE,67,11.9,-999.0,98,-99.99,,,0.14,Acu-Link.com,2013-01-09 19:53:00,
2013-01-09 14:08:00,44.4,43.9,30.14,NE,45,16.1,-999.0,98,-99.99,,,0.17,Acu-Link.com,2013-01-09 20:08:00,
2013-01-09 14:24:00,44.8,44.2,30.12,ENE,67,11.4,-999.0,98,-99.99,,,0.17,Acu-Link.com,2013-01-09 20:24:00,
2013-01-09 14:39:00,45.0,44.4,30.13,NNE,22,16.1,-999.0,98,-99.99,,,0.17,Acu-Link.com,2013-01-09 20:39:00,
2013-01-09 14:54:00,45.1,44.6,30.12,NE,45,14.5,-999.0,98,-99.99,,,0.18,Acu-Link.com,2013-01-09 20:54:00,
2013-01-09 15:09:00,45.0,44.4,30.13,NE,45,12.5,-999.0,98,-99.99,,,0.24,Acu-Link.com,2013-01-09 21:09:00,
2013-01-09 15:24:00,44.8,44.2,30.12,NNE,22,15.4,-999.0,98,-99.99,,,0.28,Acu-Link.com,2013-01-09 21:24:00,
2013-01-09 15:40:00,44.8,44.2,30.11,NNW,337,14.1,-999.0,98,-99.99,,,0.31,Acu-Link.com,2013-01-09 21:40:00,
2013-01-09 15:55:00,44.8,44.2,30.10,NNE,22,17.7,-999.0,98,-99.99,,,0.35,Acu-Link.com,2013-01-09 21:55:00,
2013-01-09 16:10:00,45.0,44.4,30.11,NE,45,16.1,-999.0,98,-99.99,,,0.42,Acu-Link.com,2013-01-09 22:10:00,
2013-01-09 16:25:00,45.1,44.6,30.11,NE,45,11.9,-999.0,98,-99.99,,,0.44,Acu-Link.com,2013-01-09 22:25:00,
2013-01-09 16:40:00,45.5,45.0,30.12,NE,45,12.5,-999.0,98,-99.99,,,0.50,Acu-Link.com,2013-01-09 22:40:00,
2013-01-09 16:56:00,45.1,44.6,30.11,NE,45,18.6,-999.0,98,-99.99,,,0.74,Acu-Link.com,2013-01-09 22:56:00,
2013-01-09 17:11:00,44.6,44.1,30.11,NE,45,19.0,-999.0,98,-99.99,,,0.83,Acu-Link.com,2013-01-09 23:11:00,
2013-01-09 17:26:00,44.4,43.9,30.10,NE,45,14.5,-999.0,98,-99.99,,,1.02,Acu-Link.com,2013-01-09 23:26:00,
2013-01-09 17:41:00,43.9,43.4,30.09,NE,45,19.7,-999.0,98,-99.99,,,1.19,Acu-Link.com,2013-01-09 23:41:00,
2013-01-09 17:56:00,43.7,43.2,30.08,NE,45,26.4,-999.0,98,-99.99,,,1.24,Acu-Link.com,2013-01-09 23:56:00,
2013-01-09 18:12:00,43.7,43.2,30.08,NE,45,18.1,-999.0,98,-99.99,,,1.42,Acu-Link.com,2013-01-10 00:12:00,
2013-01-09 18:27:00,43.5,43.0,30.08,NE,45,22.8,-999.0,98,-99.99,,,1.67,Acu-Link.com,2013-01-10 00:27:00,
2013-01-09 18:42:00,43.9,43.4,30.06,NNE,22,22.1,-999.0,98,-99.99,,,1.80,Acu-Link.com,2013-01-10 00:42:00,
2013-01-09 18:57:00,43.9,43.4,30.06,NE,45,26.8,-999.0,98,-99.99,,,2.11,Acu-Link.com,2013-01-10 00:57:00,
2013-01-09 19:13:00,43.9,43.4,30.06,NE,45,21.3,-999.0,98,-99.99,,,2.67,Acu-Link.com,2013-01-10 01:13:00,
2013-01-09 19:28:00,43.5,43.0,30.05,NE,45,21.3,-999.0,98,-99.99,,,2.80,Acu-Link.com,2013-01-10 01:28:00,
2013-01-09 19:43:00,43.7,43.2,30.05,NE,45,19.7,-999.0,98,-99.99,,,2.93,Acu-Link.com,2013-01-10 01:43:00,
2013-01-09 19:58:00,43.9,43.4,30.04,NE,45,15.0,-999.0,98,-99.99,,,3.13,Acu-Link.com,2013-01-10 01:58:00,
2013-01-09 20:13:00,44.1,43.5,30.04,NE,45,21.7,-999.0,98,-99.99,,,3.44,Acu-Link.com,2013-01-10 02:13:00,
2013-01-09 20:29:00,44.2,43.7,30.04,ENE,67,15.0,-999.0,98,-99.99,,,3.59,Acu-Link.com,2013-01-10 02:29:00,
2013-01-09 20:44:00,44.2,43.7,30.04,ENE,67,18.1,-999.0,98,-99.99,,,3.68,Acu-Link.com,2013-01-10 02:44:00,
2013-01-09 20:59:00,44.4,43.9,30.03,NE,45,22.1,-999.0,98,-99.99,,,3.72,Acu-Link.com,2013-01-10 02:59:00,
2013-01-09 21:14:00,44.4,43.9,30.03,NE,45,17.7,-999.0,98,-99.99,,,3.91,Acu-Link.com,2013-01-10 03:14:00,
2013-01-09 21:29:00,44.6,44.1,30.03,ENE,67,18.1,-999.0,98,-99.99,,,4.14,Acu-Link.com,2013-01-10 03:29:00,
2013-01-09 21:45:00,44.8,44.2,30.03,ENE,67,11.4,-999.0,98,-99.99,,,4.19,Acu-Link.com,2013-01-10 03:45:00,
2013-01-09 22:00:00,45.1,44.6,30.02,East,90,16.1,-999.0,98,-99.99,,,4.26,Acu-Link.com,2013-01-10 04:00:00,
2013-01-09 22:15:00,45.3,44.8,30.02,ENE,67,15.0,-999.0,98,-99.99,,,4.28,Acu-Link.com,2013-01-10 04:15:00,
2013-01-09 22:30:00,45.7,45.1,30.02,NE,45,17.0,-999.0,98,-99.99,,,4.44,Acu-Link.com,2013-01-10 04:30:00,
2013-01-09 22:45:00,45.9,45.3,30.03,NE,45,9.4,-999.0,98,-99.99,,,4.48,Acu-Link.com,2013-01-10 04:45:00,
2013-01-09 23:01:00,45.9,45.3,30.02,NE,45,8.9,-999.0,98,-99.99,,,4.57,Acu-Link.com,2013-01-10 05:01:00,
2013-01-09 23:16:00,46.0,45.5,30.02,NE,45,16.6,-999.0,98,-99.99,,,4.72,Acu-Link.com,2013-01-10 05:16:00,
2013-01-09 23:31:00,46.0,45.5,30.01,ENE,67,10.3,-999.0,98,-99.99,,,4.87,Acu-Link.com,2013-01-10 05:31:00,
2013-01-09 23:46:00,46.0,45.5,30.01,ENE,67,14.5,-999.0,98,-99.99,,,4.87,Acu-Link.com,2013-01-10 05:46:00,